Terminal Aerodrome Forecast
Issued by NWS

Current Version | Previous Version | Text Only | Print | Product List | Glossary On
Versions: 1 2 3 4 5 6 7 8 9 10 11 12 13 14 15 16 17 18 19
000
FTUS44 KBMX 302347
TAFTOI
TAF
KTOI 302347Z 0100/0124 18010G15KT P6SM VCSH OVC070
     FM010100 17010G15KT P6SM RA VCTS OVC035CB
      TEMPO 0101/0105 2SM TSRA BKN025CB
     FM010900 17013KT P6SM -RA OVC050
     FM011500 24011KT P6SM BKN050
     FM011700 25016G21KT P6SM SKC=

USA.gov is the U.S. government's official web portal to all federal, state and local government web resources and services.